Time;durP1;ratioP1;P1;durP2;ratioP2;P2;SDS_P1;SDS_P2;PMS_P1;PMS_P2;Temp;Humidity;BMP_temperature;BMP_pressure;BME280_temperature;BME280_humidity;BME280_pressure;Samples;Min_cycle;Max_cycle;Signal;HPM_P1;HPM_P2
2022/04/29 06:28:34;;;;;;;28.15;15.80;;;9.60;99.90;;;;;;5091287;28;20533;-70
2022/04/29 06:31:00;;;;;;;29.55;16.13;;;9.70;99.90;;;;;;5090967;28;20168;-71
2022/04/29 06:33:30;;;;;;;28.63;16.67;;;9.80;99.90;;;;;;5091035;28;20240;-71
2022/04/29 06:35:55;;;;;;;26.42;15.75;;;10.00;99.90;;;;;;5090882;28;20170;-71
2022/04/29 06:38:21;;;;;;;27.70;15.75;;;10.10;99.90;;;;;;5090961;28;20164;-70
2022/04/29 06:40:47;;;;;;;22.40;14.00;;;10.20;99.90;;;;;;5090915;28;20502;-70
2022/04/29 06:43:12;;;;;;;21.90;14.65;;;10.40;99.90;;;;;;5090770;28;20160;-71
2022/04/29 06:45:38;;;;;;;23.42;16.00;;;10.50;99.90;;;;;;5090673;28;20640;-70
2022/04/29 06:48:04;;;;;;;23.95;16.65;;;10.60;99.90;;;;;;5090553;28;20207;-68
2022/04/29 06:50:29;;;;;;;34.53;18.15;;;10.60;99.90;;;;;;5090645;28;20510;-71
2022/04/29 06:52:55;;;;;;;26.33;17.02;;;10.60;99.90;;;;;;5090046;28;20175;-71
2022/04/29 06:55:20;;;;;;;37.72;16.88;;;10.60;99.90;;;;;;5090350;28;20187;-70
2022/04/29 06:57:47;;;;;;;27.60;16.65;;;10.60;99.90;;;;;;5089420;28;20179;-70
2022/04/29 07:00:13;;;;;;;30.23;17.00;;;10.60;99.90;;;;;;5090592;28;20200;-70
2022/04/29 07:02:38;;;;;;;28.08;17.13;;;10.60;99.90;;;;;;5090528;28;20206;-70
2022/04/29 07:05:05;;;;;;;24.40;16.38;;;10.60;99.90;;;;;;5090398;28;20215;-71
2022/04/29 07:07:30;;;;;;;31.70;15.90;;;10.70;99.90;;;;;;5090467;28;20211;-70
2022/04/29 07:09:56;;;;;;;23.92;17.10;;;10.70;99.90;;;;;;5090384;28;20167;-71
2022/04/29 07:12:21;;;;;;;28.67;15.93;;;10.70;99.90;;;;;;5090475;28;20176;-71
2022/04/29 07:14:47;;;;;;;26.02;16.52;;;10.80;99.90;;;;;;5090264;28;20243;-70
2022/04/29 07:17:12;;;;;;;24.80;16.02;;;10.90;99.90;;;;;;5090287;28;20631;-70
2022/04/29 07:19:38;;;;;;;28.58;17.00;;;10.90;99.90;;;;;;5090117;28;20274;-70
2022/04/29 07:22:05;;;;;;;25.98;16.73;;;11.10;99.90;;;;;;5089213;28;20554;-71
2022/04/29 07:24:31;;;;;;;26.40;17.67;;;11.10;99.90;;;;;;5090157;28;20175;-71
2022/04/29 07:27:00;;;;;;;23.90;17.55;;;11.20;99.90;;;;;;5089807;28;20691;-70
2022/04/29 07:29:26;;;;;;;30.08;18.38;;;11.20;99.90;;;;;;5090142;28;20182;-71
2022/04/29 07:31:52;;;;;;;31.48;17.45;;;11.30;99.90;;;;;;5089897;28;20167;-71
2022/04/29 07:34:17;;;;;;;24.50;16.83;;;11.10;99.90;;;;;;5088772;28;20190;-71
2022/04/29 07:42:11;;;;;;;27.92;16.45;;;11.50;99.90;;;;;;5076249;28;20278;-70
2022/04/29 07:44:37;;;;;;;22.98;13.68;;;11.60;99.90;;;;;;5076194;28;20649;-70
2022/04/29 07:47:03;;;;;;;23.30;14.35;;;11.60;99.90;;;;;;5076224;28;20607;-71
2022/04/29 07:49:28;;;;;;;23.48;15.07;;;11.70;99.90;;;;;;5076176;28;20172;-71
2022/04/29 07:51:55;;;;;;;21.55;14.05;;;11.90;99.90;;;;;;5076309;28;20168;-71
2022/04/29 07:54:20;;;;;;;16.83;13.15;;;12.00;99.90;;;;;;5076125;28;20498;-71
2022/04/29 07:56:46;;;;;;;21.10;14.15;;;12.10;99.90;;;;;;5076008;28;20179;-71
2022/04/29 07:59:12;;;;;;;18.42;13.52;;;12.30;99.90;;;;;;5076006;28;20156;-71
2022/04/29 08:01:40;;;;;;;21.48;14.13;;;12.30;99.90;;;;;;5076122;28;20610;-71
2022/04/29 08:04:06;;;;;;;19.50;13.38;;;12.50;99.90;;;;;;5075956;28;20168;-71
2022/04/29 08:06:32;;;;;;;24.35;13.40;;;12.70;99.90;;;;;;5075761;28;20220;-71
2022/04/29 08:08:57;;;;;;;22.55;13.32;;;12.70;99.90;;;;;;5076003;28;20200;-71
2022/04/29 08:11:24;;;;;;;18.92;12.82;;;12.80;99.90;;;;;;5075822;28;20179;-70
2022/04/29 08:13:49;;;;;;;22.17;15.45;;;12.90;99.90;;;;;;5075805;28;20492;-71
2022/04/29 08:16:15;;;;;;;21.55;14.30;;;13.10;99.90;;;;;;5075713;28;20239;-71
2022/04/29 08:18:41;;;;;;;26.70;14.85;;;13.10;99.90;;;;;;5075792;28;20709;-71
2022/04/29 08:21:07;;;;;;;21.05;14.20;;;13.20;99.90;;;;;;5075650;28;20168;-71
2022/04/29 08:23:33;;;;;;;25.90;13.45;;;13.30;99.90;;;;;;5075622;28;20169;-71
2022/04/29 08:25:59;;;;;;;18.15;12.88;;;13.40;99.90;;;;;;5074367;28;20172;-71
2022/04/29 08:28:26;;;;;;;14.35;11.07;;;13.60;99.90;;;;;;5075273;28;20307;-71
2022/04/29 08:30:52;;;;;;;14.93;10.82;;;13.70;99.90;;;;;;5075443;28;20167;-71
2022/04/29 08:33:17;;;;;;;21.65;13.15;;;13.80;99.90;;;;;;5075518;28;20200;-71
2022/04/29 08:35:43;;;;;;;19.95;14.52;;;13.70;99.90;;;;;;5074216;28;20202;-71
2022/04/29 08:38:10;;;;;;;19.98;11.85;;;13.90;99.90;;;;;;5075305;28;20183;-71
2022/04/29 08:40:43;;;;;;;20.83;12.63;;;14.00;99.90;;;;;;5073981;28;20180;-71
2022/04/29 08:43:14;;;;;;;21.92;12.40;;;14.20;99.90;;;;;;5075291;28;20160;-71
2022/04/29 08:45:40;;;;;;;13.25;10.15;;;14.40;99.90;;;;;;5075207;28;20521;-71
2022/04/29 08:48:06;;;;;;;13.10;10.52;;;14.40;99.90;;;;;;5075073;28;20204;-71
2022/04/29 08:50:31;;;;;;;13.98;10.02;;;14.50;99.90;;;;;;5074103;28;20164;-71
2022/04/29 08:52:57;;;;;;;21.77;10.60;;;14.70;99.90;;;;;;5074905;28;20569;-71
2022/04/29 09:01:01;;;;;;;15.38;10.77;;;15.00;99.90;;;;;;5075123;28;20175;-71
2022/04/29 09:03:27;;;;;;;23.88;11.75;;;15.00;99.90;;;;;;5074714;28;20176;-71
2022/04/29 09:05:52;;;;;;;16.50;10.98;;;15.00;99.90;;;;;;5074708;28;20634;-71
2022/04/29 09:08:21;;;;;;;14.82;11.50;;;15.00;99.90;;;;;;5074683;28;20239;-71
2022/04/29 09:10:51;;;;;;;16.13;11.20;;;15.00;99.90;;;;;;5073391;28;20535;-71
2022/04/29 09:13:24;;;;;;;12.63;10.35;;;14.90;99.90;;;;;;5074548;28;20233;-71
2022/04/29 09:16:01;;;;;;;16.52;11.27;;;14.90;99.90;;;;;;5074587;28;20169;-71
2022/04/29 09:18:39;;;;;;;20.63;9.98;;;14.90;99.90;;;;;;5074615;28;20167;-71
2022/04/29 09:21:09;;;;;;;13.10;10.23;;;14.90;99.90;;;;;;5074392;28;20174;-71
2022/04/29 09:23:37;;;;;;;23.00;12.00;;;14.90;99.90;;;;;;5074433;28;20168;-71
2022/04/29 09:26:05;;;;;;;14.57;10.70;;;15.00;99.90;;;;;;5074266;28;20165;-71
2022/04/29 09:28:33;;;;;;;16.67;11.05;;;15.10;99.90;;;;;;5074089;28;20216;-71
2022/04/29 09:30:59;;;;;;;15.98;11.98;;;15.20;99.90;;;;;;5074231;28;20214;-71
2022/04/29 09:33:26;;;;;;;21.60;12.43;;;15.10;99.90;;;;;;5074433;28;20664;-71
2022/04/29 09:35:53;;;;;;;20.85;11.45;;;15.10;99.90;;;;;;5073136;28;20263;-71
2022/04/29 09:41:04;;;;;;;19.70;11.15;;;15.10;99.90;;;;;;5074233;28;20179;-71
2022/04/29 09:43:37;;;;;;;19.23;11.30;;;15.20;99.90;;;;;;5074222;28;20181;-71
2022/04/29 09:46:09;;;;;;;12.93;10.48;;;15.10;99.90;;;;;;5072975;28;20172;-71
2022/04/29 09:48:57;;;;;;;17.80;12.07;;;14.90;99.90;;;;;;5073988;28;20200;-71
2022/04/29 09:51:48;;;;;;;16.05;10.35;;;14.90;99.90;;;;;;5074018;28;20165;-71
2022/04/29 09:54:18;;;;;;;23.73;10.90;;;15.00;99.90;;;;;;5073913;28;20630;-71
2022/04/29 09:56:46;;;;;;;11.07;9.55;;;15.10;99.90;;;;;;5073875;28;20180;-71
2022/04/29 09:59:12;;;;;;;21.98;11.45;;;15.10;99.90;;;;;;5072959;28;20180;-71
2022/04/29 10:01:38;;;;;;;17.08;10.75;;;15.30;99.90;;;;;;5073592;28;20614;-71
2022/04/29 10:04:04;;;;;;;16.38;11.38;;;15.20;99.90;;;;;;5073813;28;20535;-71
2022/04/29 10:06:32;;;;;;;11.98;10.70;;;15.20;99.90;;;;;;5073607;28;20192;-70
2022/04/29 10:08:59;;;;;;;16.63;11.32;;;15.20;99.90;;;;;;5073801;28;20240;-71
2022/04/29 10:11:26;;;;;;;16.40;9.50;;;15.40;99.90;;;;;;5073685;28;20177;-71
2022/04/29 10:13:53;;;;;;;19.90;10.75;;;15.40;99.90;;;;;;5073715;28;20161;-71
2022/04/29 10:16:19;;;;;;;16.38;10.57;;;15.40;99.90;;;;;;5073642;28;20169;-71
2022/04/29 10:21:45;;;;;;;13.18;10.68;;;15.60;99.90;;;;;;5073859;28;20565;-71
2022/04/29 10:24:11;;;;;;;12.80;10.65;;;15.80;99.90;;;;;;5073451;28;20637;-71
2022/04/29 10:26:36;;;;;;;16.30;10.35;;;15.90;99.90;;;;;;5073325;28;20227;-71
2022/04/29 10:29:02;;;;;;;16.65;11.05;;;15.80;99.90;;;;;;5073438;28;20161;-71
2022/04/29 10:31:31;;;;;;;12.30;10.40;;;15.70;99.90;;;;;;5073468;28;20171;-71
2022/04/29 10:34:33;;;;;;;24.15;11.90;;;15.70;99.90;;;;;;5073389;28;20175;-71
2022/04/29 10:36:59;;;;;;;13.57;10.00;;;15.60;99.90;;;;;;5071220;28;20178;-71
2022/04/29 10:39:25;;;;;;;16.80;10.60;;;15.70;99.90;;;;;;5073088;28;20184;-71
2022/04/29 10:42:09;;;;;;;15.95;10.30;;;15.70;99.90;;;;;;5073251;28;20251;-71
2022/04/29 10:44:55;;;;;;;15.27;10.77;;;15.60;99.90;;;;;;5072137;28;20176;-71
2022/04/29 10:47:42;;;;;;;18.23;10.13;;;15.60;99.90;;;;;;5072959;28;20252;-71
2022/04/29 10:50:29;;;;;;;16.92;9.68;;;15.50;99.90;;;;;;5071992;28;20258;-71
2022/04/29 10:53:05;;;;;;;14.43;9.90;;;15.40;99.90;;;;;;5073283;28;20553;-71
2022/04/29 10:55:31;;;;;;;17.58;9.77;;;15.40;99.90;;;;;;5073449;28;20165;-71
2022/04/29 10:58:02;;;;;;;14.40;10.15;;;15.50;99.90;;;;;;5073081;28;20277;-71
2022/04/29 11:00:28;;;;;;;13.05;10.05;;;15.70;99.90;;;;;;5073170;28;20176;-71
2022/04/29 11:02:54;;;;;;;16.10;10.25;;;15.80;99.90;;;;;;5073237;28;20168;-71
2022/04/29 11:05:39;;;;;;;17.35;10.13;;;15.70;99.90;;;;;;5073183;28;20638;-71
2022/04/29 11:08:10;;;;;;;15.45;10.35;;;15.60;99.90;;;;;;5073147;28;20196;-71
2022/04/29 11:10:56;;;;;;;14.65;9.88;;;15.40;99.90;;;;;;5073420;28;20165;-71
2022/04/29 11:13:23;;;;;;;16.58;10.50;;;15.50;99.90;;;;;;5073672;28;20214;-71
2022/04/29 11:15:49;;;;;;;19.88;11.00;;;15.70;99.90;;;;;;5075851;28;20176;-71
2022/04/29 11:18:22;;;;;;;14.43;10.15;;;15.80;99.90;;;;;;5076730;28;20176;-71
2022/04/29 11:20:52;;;;;;;13.73;10.10;;;15.90;99.90;;;;;;5076751;28;20160;-71
2022/04/29 11:26:18;;;;;;;15.50;9.85;;;15.80;99.90;;;;;;5076563;28;20363;-71
2022/04/29 11:28:44;;;;;;;13.57;9.98;;;15.90;99.90;;;;;;5076655;28;20168;-71
2022/04/29 11:31:11;;;;;;;15.65;9.43;;;16.10;99.90;;;;;;5076466;28;20176;-71
2022/04/29 11:33:40;;;;;;;11.32;9.27;;;16.20;99.90;;;;;;5076536;28;20177;-71
2022/04/29 11:36:10;;;;;;;12.38;10.23;;;16.40;99.90;;;;;;5076527;28;20160;-71
2022/04/29 11:38:53;;;;;;;14.43;9.73;;;16.50;99.90;;;;;;5076319;28;20259;-71
2022/04/29 11:41:21;;;;;;;16.15;9.40;;;16.50;99.90;;;;;;5076430;28;20264;-71
2022/04/29 11:43:51;;;;;;;20.13;10.40;;;16.50;99.90;;;;;;5076430;28;20191;-71
2022/04/29 11:46:18;;;;;;;16.63;9.90;;;16.60;99.90;;;;;;5076270;28;20172;-71
2022/04/29 11:49:00;;;;;;;12.52;9.52;;;16.50;99.90;;;;;;5076350;28;20180;-71
2022/04/29 11:51:30;;;;;;;18.40;9.90;;;16.50;99.90;;;;;;5076251;28;20188;-71
2022/04/29 11:54:04;;;;;;;15.98;10.20;;;16.60;99.90;;;;;;5076055;28;20239;-71
2022/04/29 11:56:37;;;;;;;10.80;9.07;;;16.60;99.90;;;;;;5076231;28;20222;-71
2022/04/29 11:59:08;;;;;;;17.48;10.38;;;16.60;99.90;;;;;;5076326;28;20652;-71
2022/04/29 12:01:34;;;;;;;19.60;9.45;;;16.80;99.90;;;;;;5075979;28;20203;-71
2022/04/29 12:04:00;;;;;;;20.27;9.18;;;16.80;99.90;;;;;;5075896;28;20167;-71
2022/04/29 12:06:26;;;;;;;13.02;8.55;;;16.80;99.90;;;;;;5075875;28;20215;-71
2022/04/29 12:08:52;;;;;;;13.93;9.75;;;16.90;99.90;;;;;;5075915;28;20196;-71
2022/04/29 12:11:29;;;;;;;14.20;9.07;;;17.10;99.90;;;;;;5075893;28;20510;-71
2022/04/29 12:13:55;;;;;;;14.50;9.82;;;17.00;99.90;;;;;;5075994;28;20637;-71
2022/04/29 12:16:21;;;;;;;13.43;9.27;;;16.80;99.90;;;;;;5075797;28;20601;-71
2022/04/29 12:18:48;;;;;;;14.90;9.68;;;16.70;99.90;;;;;;5075635;28;20179;-71
2022/04/29 12:21:21;;;;;;;16.30;9.57;;;16.70;99.90;;;;;;5075633;28;20618;-70
2022/04/29 12:23:47;;;;;;;15.77;9.27;;;16.60;99.90;;;;;;5075608;28;20629;-71
2022/04/29 12:26:13;;;;;;;15.05;9.88;;;16.60;99.90;;;;;;5075223;28;20180;-71
2022/04/29 12:28:38;;;;;;;21.20;9.80;;;16.90;99.90;;;;;;5075493;28;20587;-71
2022/04/29 12:36:59;;;;;;;17.80;9.70;;;17.40;99.90;;;;;;5075474;28;20178;-71
2022/04/29 12:39:25;;;;;;;13.75;10.02;;;17.70;99.90;;;;;;5075345;28;20556;-71
2022/04/29 12:42:06;;;;;;;12.50;10.90;;;17.80;99.90;;;;;;5075313;28;20521;-71
2022/04/29 12:47:38;;;;;;;14.43;9.32;;;18.00;99.90;;;;;;5075272;28;20253;-71
2022/04/29 12:50:42;;;;;;;21.17;9.57;;;18.00;99.90;;;;;;5075175;28;20170;-71
2022/04/29 12:53:16;;;;;;;16.67;10.30;;;18.00;99.90;;;;;;5074999;28;20511;-71
2022/04/29 12:55:42;;;;;;;12.60;10.30;;;18.10;99.90;;;;;;5075073;28;20520;-71
2022/04/29 12:58:09;;;;;;;15.88;10.38;;;18.00;99.90;;;;;;5074882;28;20178;-71
2022/04/29 13:00:40;;;;;;;17.40;11.05;;;17.70;99.90;;;;;;5073863;28;20179;-71
2022/04/29 13:03:15;;;;;;;15.13;10.35;;;17.50;99.90;;;;;;5075015;28;20215;-71
2022/04/29 13:05:41;;;;;;;10.88;9.90;;;17.30;99.90;;;;;;5073348;28;20194;-71
2022/04/29 13:08:10;;;;;;;17.33;10.10;;;17.30;99.90;;;;;;5073621;28;20199;-71
2022/04/29 13:10:53;;;;;;;15.63;10.73;;;17.50;99.90;;;;;;5074576;28;20203;-71
2022/04/29 13:13:20;;;;;;;16.98;9.80;;;17.60;99.90;;;;;;5074539;28;20160;-71
2022/04/29 13:15:47;;;;;;;16.15;9.55;;;17.60;99.90;;;;;;5074684;28;20160;-71
2022/04/29 13:18:13;;;;;;;12.90;9.57;;;17.60;99.90;;;;;;5074580;28;20605;-71
2022/04/29 13:20:39;;;;;;;21.30;10.88;;;17.50;99.90;;;;;;5074544;28;20168;-71
2022/04/29 13:23:06;;;;;;;14.18;9.75;;;17.50;99.90;;;;;;5074485;28;20233;-71
2022/04/29 13:25:35;;;;;;;19.08;10.05;;;17.40;99.90;;;;;;5074405;28;20206;-71
2022/04/29 13:28:01;;;;;;;13.93;9.65;;;17.30;99.90;;;;;;5074164;28;20535;-71
2022/04/29 13:30:27;;;;;;;16.60;9.23;;;17.10;99.90;;;;;;5074257;28;20164;-71
2022/04/29 13:32:53;;;;;;;16.27;9.05;;;16.90;99.90;;;;;;5074301;28;20157;-71
2022/04/29 13:35:19;;;;;;;16.95;10.55;;;16.70;99.90;;;;;;5074210;28;20169;-71
2022/04/29 13:37:44;;;;;;;13.27;10.13;;;16.70;99.90;;;;;;5072591;28;20175;-71
2022/04/29 13:40:11;;;;;;;17.08;10.35;;;16.60;99.90;;;;;;5074108;28;20172;-71
2022/04/29 13:42:37;;;;;;;17.30;9.65;;;16.70;99.90;;;;;;5074011;28;20176;-71
2022/04/29 13:45:07;;;;;;;14.73;10.00;;;16.60;99.90;;;;;;5074140;28;20176;-71
2022/04/29 13:47:37;;;;;;;13.90;9.90;;;16.60;99.90;;;;;;5073820;28;20195;-71
2022/04/29 13:50:04;;;;;;;28.40;10.23;;;16.60;99.90;;;;;;5074045;28;20243;-71
2022/04/29 13:55:15;;;;;;;14.55;9.80;;;16.50;99.90;;;;;;5074007;28;20629;-71
2022/04/29 13:57:40;;;;;;;17.67;9.40;;;16.40;99.90;;;;;;5072577;28;20172;-70
2022/04/29 14:00:11;;;;;;;17.00;10.45;;;16.50;99.90;;;;;;5073983;28;20586;-71
2022/04/29 14:02:40;;;;;;;14.27;9.68;;;16.40;99.90;;;;;;5073898;28;20168;-71
2022/04/29 14:05:07;;;;;;;17.00;9.80;;;16.30;99.90;;;;;;5073718;28;20191;-70
2022/04/29 14:07:33;;;;;;;16.08;9.25;;;16.10;99.90;;;;;;5073617;28;20262;-71
2022/04/29 14:09:59;;;;;;;15.85;10.50;;;16.10;99.90;;;;;;5073679;28;20217;-71
2022/04/29 14:12:26;;;;;;;17.80;9.13;;;16.00;99.90;;;;;;5073459;28;20621;-71
2022/04/29 14:14:55;;;;;;;19.58;9.20;;;16.20;99.90;;;;;;5072323;28;20168;-71
2022/04/29 14:17:21;;;;;;;13.13;8.65;;;16.10;99.90;;;;;;5073300;28;20164;-71
2022/04/29 14:19:49;;;;;;;12.88;8.65;;;16.00;99.90;;;;;;5071917;28;20176;-71
2022/04/29 14:22:15;;;;;;;12.23;9.75;;;15.90;99.90;;;;;;5072039;28;20172;-71
2022/04/29 14:24:41;;;;;;;11.98;9.15;;;15.70;99.90;;;;;;5073508;28;20226;-70
2022/04/29 14:27:07;;;;;;;12.80;8.63;;;15.60;99.90;;;;;;5071961;28;20216;-71
2022/04/29 14:29:35;;;;;;;10.10;8.52;;;15.50;99.90;;;;;;5073476;28;20498;-70
2022/04/29 14:32:02;;;;;;;13.07;8.60;;;15.30;99.90;;;;;;5073241;28;20164;-70
2022/04/29 14:34:32;;;;;;;12.90;9.20;;;15.30;99.90;;;;;;5073571;28;20762;-70
2022/04/29 14:37:01;;;;;;;18.52;9.20;;;15.20;99.90;;;;;;5073143;28;20171;-70
2022/04/29 14:39:28;;;;;;;18.67;9.43;;;15.20;99.90;;;;;;5073305;28;20195;-71
2022/04/29 14:41:56;;;;;;;17.83;9.07;;;15.20;99.90;;;;;;5073416;28;20175;-70
2022/04/29 14:44:22;;;;;;;13.07;8.60;;;15.20;99.90;;;;;;5073032;28;20165;-70
2022/04/29 14:46:48;;;;;;;12.55;8.85;;;15.00;99.90;;;;;;5072513;28;20261;-70
2022/04/29 14:49:15;;;;;;;13.48;9.52;;;14.90;99.90;;;;;;5075056;28;20179;-70
2022/04/29 14:51:40;;;;;;;11.43;9.35;;;14.80;99.90;;;;;;5077385;28;20617;-70
2022/04/29 14:54:07;;;;;;;15.43;8.57;;;14.80;99.90;;;;;;5077392;28;20176;-70
2022/04/29 14:56:34;;;;;;;12.45;8.80;;;14.80;99.90;;;;;;5077340;28;20161;-70
2022/04/29 14:59:00;;;;;;;16.83;9.88;;;14.80;99.90;;;;;;5077106;28;20176;-70
2022/04/29 15:01:30;;;;;;;14.05;8.88;;;14.80;99.90;;;;;;5075552;28;20669;-70
2022/04/29 15:03:55;;;;;;;22.00;10.50;;;14.70;99.90;;;;;;5075566;28;20168;-70
2022/04/29 15:06:23;;;;;;;24.13;10.07;;;14.60;99.90;;;;;;5076779;28;20271;-71
2022/04/29 15:15:34;;;;;;;13.73;9.52;;;14.50;99.90;;;;;;5077031;28;20196;-71
2022/04/29 15:17:25;;;;;;;14.18;9.77;;;14.50;99.90;;;;;;5076643;28;20451;-71
2022/04/29 15:19:52;;;;;;;15.32;9.15;;;14.60;99.90;;;;;;5076722;28;20164;-71
2022/04/29 15:22:20;;;;;;;14.75;9.80;;;14.70;99.90;;;;;;5076321;28;20172;-71
2022/04/29 15:24:46;;;;;;;13.15;9.98;;;14.70;99.90;;;;;;5076523;28;20222;-71
2022/04/29 15:27:12;;;;;;;12.75;9.00;;;14.70;99.90;;;;;;5076104;28;20212;-71
2022/04/29 15:29:37;;;;;;;17.77;10.35;;;14.70;99.90;;;;;;5076519;28;20632;-71
2022/04/29 15:32:04;;;;;;;15.65;10.10;;;14.80;99.90;;;;;;5076351;28;20175;-71
2022/04/29 15:34:33;;;;;;;13.30;9.57;;;14.70;99.90;;;;;;5076131;28;20534;-71
2022/04/29 15:37:00;;;;;;;13.45;10.82;;;14.70;99.90;;;;;;5075902;28;20218;-71
2022/04/29 15:39:27;;;;;;;21.90;11.00;;;14.60;99.90;;;;;;5075989;28;20215;-71
2022/04/29 15:41:52;;;;;;;16.83;12.30;;;14.40;99.90;;;;;;5075904;28;20180;-71
2022/04/29 15:44:18;;;;;;;11.90;10.77;;;14.30;99.90;;;;;;5076107;28;20241;-71
2022/04/29 15:46:44;;;;;;;14.65;10.93;;;14.40;99.90;;;;;;5075945;28;20165;-71
2022/04/29 15:49:09;;;;;;;24.33;11.32;;;14.30;99.90;;;;;;5076001;28;20172;-71
2022/04/29 15:51:35;;;;;;;15.15;10.50;;;14.50;99.90;;;;;;5075906;28;20172;-71
2022/04/29 15:54:02;;;;;;;15.73;10.88;;;14.50;99.90;;;;;;5074765;28;20245;-71
2022/04/29 15:56:28;;;;;;;19.67;11.18;;;14.60;99.90;;;;;;5076288;28;20180;-71
2022/04/29 15:58:54;;;;;;;18.50;10.80;;;14.60;99.90;;;;;;5075832;28;20156;-71
2022/04/29 16:01:20;;;;;;;20.30;11.43;;;14.50;99.90;;;;;;5075841;28;20169;-71
2022/04/29 16:03:49;;;;;;;17.08;10.88;;;14.50;99.90;;;;;;5076202;28;20164;-71
2022/04/29 16:06:16;;;;;;;14.18;10.70;;;14.50;99.90;;;;;;5076070;28;20180;-71
2022/04/29 16:08:42;;;;;;;17.88;10.45;;;14.50;99.90;;;;;;5074715;28;20196;-71
2022/04/29 16:11:07;;;;;;;15.48;10.32;;;14.50;99.90;;;;;;5075867;28;20592;-71
2022/04/29 16:13:33;;;;;;;17.15;10.20;;;14.60;99.90;;;;;;5076063;28;20236;-71
2022/04/29 16:15:59;;;;;;;16.42;10.10;;;14.60;99.90;;;;;;5075797;28;20223;-71
2022/04/29 16:21:09;;;;;;;16.40;10.50;;;14.60;99.90;;;;;;5075924;28;20183;-70
2022/04/29 16:26:20;;;;;;;17.17;9.32;;;14.50;99.90;;;;;;5075849;28;20632;-71
2022/04/29 16:28:46;;;;;;;14.40;10.85;;;14.30;99.90;;;;;;5075464;28;20207;-70
2022/04/29 16:31:12;;;;;;;15.93;9.85;;;14.30;99.90;;;;;;5075466;28;20165;-70
2022/04/29 16:33:41;;;;;;;14.38;11.13;;;14.20;99.90;;;;;;5075403;28;20663;-71
2022/04/29 16:36:08;;;;;;;18.08;10.25;;;14.00;99.90;;;;;;5075567;28;20247;-70
2022/04/29 16:38:38;;;;;;;11.30;9.95;;;14.00;99.90;;;;;;5075225;28;20168;-70
2022/04/29 16:41:04;;;;;;;19.02;10.73;;;14.00;99.90;;;;;;5075367;28;20187;-70
2022/04/29 16:43:30;;;;;;;16.80;11.55;;;13.90;99.90;;;;;;5075361;28;20195;-70
2022/04/29 16:45:55;;;;;;;20.10;11.15;;;13.90;99.90;;;;;;5075191;28;20214;-71
2022/04/29 16:48:22;;;;;;;15.10;10.38;;;13.90;99.90;;;;;;5075289;28;20204;-70
2022/04/29 16:50:48;;;;;;;15.23;9.77;;;13.90;99.90;;;;;;5075232;28;20187;-70
2022/04/29 16:53:13;;;;;;;13.93;10.80;;;13.80;99.90;;;;;;5075280;28;20168;-70
2022/04/29 16:55:40;;;;;;;13.25;10.25;;;13.80;99.90;;;;;;5074931;28;20164;-70
2022/04/29 17:00:51;;;;;;;19.15;10.65;;;13.70;99.90;;;;;;5074923;28;20286;-70
2022/04/29 17:03:18;;;;;;;13.45;9.98;;;13.70;99.90;;;;;;5074872;28;20168;-70
2022/04/29 17:05:44;;;;;;;19.85;10.65;;;13.70;99.90;;;;;;5074874;28;20680;-70
2022/04/29 17:08:16;;;;;;;15.77;10.15;;;13.60;99.90;;;;;;5074703;28;20204;-71
2022/04/29 17:10:43;;;;;;;13.95;10.25;;;13.60;99.90;;;;;;5074238;28;20198;-70
2022/04/29 17:13:10;;;;;;;20.73;10.82;;;13.50;99.90;;;;;;5074222;28;20157;-70
2022/04/29 17:15:36;;;;;;;14.85;12.25;;;13.40;99.90;;;;;;5074848;28;20157;-70
2022/04/29 17:18:02;;;;;;;16.17;11.13;;;13.30;99.90;;;;;;5074686;28;20248;-70
2022/04/29 17:20:28;;;;;;;16.42;11.25;;;13.10;99.90;;;;;;5074460;28;20561;-70
2022/04/29 17:22:53;;;;;;;15.10;11.25;;;13.00;99.90;;;;;;5074325;28;20191;-70
2022/04/29 17:25:20;;;;;;;19.92;10.98;;;13.00;99.90;;;;;;5074408;28;20263;-70
2022/04/29 17:27:46;;;;;;;16.90;10.98;;;12.90;99.90;;;;;;5074140;28;20227;-70
2022/04/29 17:30:12;;;;;;;20.08;11.85;;;13.00;99.90;;;;;;5074278;28;20171;-70
2022/04/29 17:32:38;;;;;;;17.98;10.82;;;12.90;99.90;;;;;;5074004;28;20169;-70
2022/04/29 17:35:04;;;;;;;23.75;11.70;;;12.90;99.90;;;;;;5074242;28;20168;-71
2022/04/29 17:37:30;;;;;;;16.75;10.48;;;12.80;99.90;;;;;;5073874;28;20317;-70
2022/04/29 17:42:41;;;;;;;18.80;11.23;;;12.70;99.90;;;;;;5074026;28;20225;-70
2022/04/29 17:45:07;;;;;;;16.70;11.52;;;12.70;99.90;;;;;;5073873;28;20184;-70
2022/04/29 17:47:33;;;;;;;19.20;11.32;;;12.70;99.90;;;;;;5073818;28;20188;-70
2022/04/29 17:50:17;;;;;;;18.17;11.32;;;12.70;99.90;;;;;;5073977;28;20547;-70
2022/04/29 17:52:44;;;;;;;19.92;12.85;;;12.60;99.90;;;;;;5073780;28;20610;-70
2022/04/29 17:55:10;;;;;;;17.77;12.95;;;12.60;99.90;;;;;;5073685;28;20262;-70
